Time;durP1;ratioP1;P1;durP2;ratioP2;P2;SDS_P1;SDS_P2;PMS_P1;PMS_P2;Temp;Humidity;BMP_temperature;BMP_pressure;BME280_temperature;BME280_humidity;BME280_pressure;Samples;Min_cycle;Max_cycle;Signal;HPM_P1;HPM_P2
2022/03/03 00:01:37;;;;;;;19.90;16.73;;;1.40;99.90;;;;;;5031673;28;20425;-67
2022/03/03 00:04:03;;;;;;;22.60;17.33;;;1.30;99.90;;;;;;5031558;28;21234;-66
2022/03/03 00:06:29;;;;;;;22.30;16.70;;;1.30;99.90;;;;;;5031192;28;20188;-67
2022/03/03 00:08:54;;;;;;;21.03;17.03;;;1.30;99.90;;;;;;5031557;28;20212;-67
2022/03/03 00:11:20;;;;;;;21.80;17.07;;;1.30;99.90;;;;;;5035263;28;20174;-68
2022/03/03 00:13:45;;;;;;;21.10;16.17;;;1.30;99.90;;;;;;5035035;28;20257;-67
2022/03/03 00:16:11;;;;;;;22.90;16.20;;;1.20;99.90;;;;;;5035044;28;20698;-66
2022/03/03 00:18:37;;;;;;;24.53;16.77;;;1.20;99.90;;;;;;5035401;28;20277;-67
2022/03/03 00:21:03;;;;;;;22.50;16.60;;;1.30;99.90;;;;;;5035245;28;20721;-67
2022/03/03 00:23:29;;;;;;;20.60;16.57;;;1.30;99.90;;;;;;5035032;28;20182;-67
2022/03/03 00:25:55;;;;;;;25.47;17.80;;;1.20;99.90;;;;;;5034520;28;20439;-67
2022/03/03 00:28:20;;;;;;;23.27;16.47;;;1.20;99.90;;;;;;5034874;28;20452;-67
2022/03/03 00:30:46;;;;;;;22.70;16.07;;;1.20;99.90;;;;;;5034687;28;20218;-66
2022/03/03 00:33:12;;;;;;;26.10;17.77;;;1.30;99.90;;;;;;5035114;28;20174;-67
2022/03/03 00:35:38;;;;;;;25.00;17.27;;;1.30;99.90;;;;;;5033266;28;20554;-67
2022/03/03 00:38:03;;;;;;;21.70;16.20;;;1.20;99.90;;;;;;5034967;28;20432;-67
2022/03/03 00:40:29;;;;;;;21.10;16.00;;;1.20;99.90;;;;;;5035149;28;20183;-66
2022/03/03 00:42:54;;;;;;;19.07;14.47;;;1.20;99.90;;;;;;5033614;28;20185;-67
2022/03/03 00:45:20;;;;;;;24.67;16.20;;;1.30;99.90;;;;;;5034562;28;20198;-67
2022/03/03 00:47:46;;;;;;;26.17;16.60;;;1.20;99.90;;;;;;5034224;28;20596;-67
2022/03/03 00:50:11;;;;;;;19.43;15.77;;;1.10;99.90;;;;;;5034961;28;20644;-67
2022/03/03 00:52:37;;;;;;;17.97;15.80;;;1.10;99.90;;;;;;5034506;28;20255;-67
2022/03/03 00:55:03;;;;;;;31.80;22.33;;;1.00;99.90;;;;;;5034083;28;20336;-67
2022/03/03 00:57:29;;;;;;;27.57;19.33;;;1.00;99.90;;;;;;5034317;28;20183;-66
2022/03/03 00:59:55;;;;;;;19.17;16.73;;;1.00;99.90;;;;;;5032729;28;20208;-66
2022/03/03 01:02:20;;;;;;;26.83;15.70;;;1.00;99.90;;;;;;5034444;28;20847;-67
2022/03/03 01:04:46;;;;;;;26.20;18.63;;;1.10;99.90;;;;;;5034514;28;20699;-66
2022/03/03 01:07:11;;;;;;;21.57;17.17;;;1.00;99.90;;;;;;5034073;28;20166;-66
2022/03/03 01:09:37;;;;;;;26.33;18.13;;;1.00;99.90;;;;;;5034340;28;20221;-66
2022/03/03 01:12:03;;;;;;;23.60;17.53;;;1.00;99.90;;;;;;5033881;28;20670;-66
2022/03/03 01:14:29;;;;;;;21.27;17.90;;;1.10;99.90;;;;;;5034015;28;20683;-67
2022/03/03 01:16:54;;;;;;;24.30;18.53;;;1.00;99.90;;;;;;5033879;28;20433;-66
2022/03/03 01:19:20;;;;;;;22.90;17.80;;;1.00;99.90;;;;;;5034005;28;20235;-66
2022/03/03 01:21:46;;;;;;;24.13;18.17;;;1.00;99.90;;;;;;5033752;28;20235;-67
2022/03/03 01:24:12;;;;;;;26.87;18.00;;;1.00;99.90;;;;;;5033681;28;20569;-67
2022/03/03 01:26:38;;;;;;;25.37;19.00;;;1.00;99.90;;;;;;5033519;28;20429;-67
2022/03/03 01:29:03;;;;;;;23.00;17.70;;;0.90;99.90;;;;;;5033588;28;20467;-66
2022/03/03 01:31:29;;;;;;;24.90;17.73;;;0.90;99.90;;;;;;5033829;28;20186;-68
2022/03/03 01:33:54;;;;;;;22.80;16.90;;;0.90;99.90;;;;;;5033425;28;20699;-67
2022/03/03 01:36:20;;;;;;;22.80;18.00;;;0.70;99.90;;;;;;5033055;28;20174;-66
2022/03/03 01:38:45;;;;;;;21.30;17.63;;;0.60;99.90;;;;;;5033844;28;20190;-67
2022/03/03 01:41:11;;;;;;;29.77;18.37;;;0.50;99.90;;;;;;5033560;28;20175;-67
2022/03/03 01:43:38;;;;;;;25.00;16.87;;;0.50;99.90;;;;;;5033667;28;20205;-66
2022/03/03 01:46:04;;;;;;;20.50;16.73;;;0.50;99.90;;;;;;5031929;28;20181;-67
2022/03/03 01:48:30;;;;;;;23.10;19.20;;;0.60;99.90;;;;;;5033201;28;20457;-67
2022/03/03 01:50:55;;;;;;;23.53;18.10;;;0.60;99.90;;;;;;5033603;28;20429;-66
2022/03/03 01:53:21;;;;;;;23.27;17.87;;;0.60;99.90;;;;;;5033465;28;20244;-65
2022/03/03 01:55:49;;;;;;;26.10;18.17;;;0.70;99.90;;;;;;5032930;28;20202;-66
2022/03/03 01:58:14;;;;;;;23.20;17.93;;;0.70;99.90;;;;;;5031786;28;20174;-67
2022/03/03 02:00:40;;;;;;;26.40;18.50;;;0.70;99.90;;;;;;5033607;28;20482;-67
2022/03/03 02:03:06;;;;;;;28.73;17.77;;;0.70;99.90;;;;;;5033413;28;20186;-67
2022/03/03 02:05:32;;;;;;;21.83;16.90;;;0.70;99.90;;;;;;5032845;28;20264;-67
2022/03/03 02:07:57;;;;;;;26.27;19.37;;;0.70;99.90;;;;;;5033285;28;20549;-66
2022/03/03 02:10:24;;;;;;;26.37;17.57;;;0.70;99.90;;;;;;5033026;28;20190;-67
2022/03/03 02:12:49;;;;;;;27.70;18.50;;;0.60;99.90;;;;;;5032901;28;20173;-67
2022/03/03 02:15:17;;;;;;;21.00;18.03;;;0.50;99.90;;;;;;5032479;28;20444;-67
2022/03/03 02:17:43;;;;;;;23.90;18.20;;;0.40;99.90;;;;;;5032905;28;20588;-67
2022/03/03 02:20:19;;;;;;;22.83;16.50;;;0.40;99.90;;;;;;5033093;28;20425;-67
2022/03/03 02:22:44;;;;;;;25.40;17.00;;;0.40;99.90;;;;;;5027155;28;20430;-66
2022/03/03 02:25:10;;;;;;;24.90;17.50;;;0.30;99.90;;;;;;5032638;28;20526;-66
2022/03/03 02:27:35;;;;;;;21.10;17.10;;;0.30;99.90;;;;;;5032637;28;20817;-67
2022/03/03 02:30:01;;;;;;;26.53;19.23;;;0.40;99.90;;;;;;5032878;28;20183;-67
2022/03/03 02:32:27;;;;;;;25.77;19.10;;;0.40;99.90;;;;;;5031621;28;20562;-67
2022/03/03 02:34:52;;;;;;;22.97;18.50;;;0.40;99.90;;;;;;5032657;28;20198;-67
2022/03/03 02:37:18;;;;;;;20.90;17.03;;;0.30;99.90;;;;;;5032472;28;20170;-66
2022/03/03 02:39:44;;;;;;;24.13;18.07;;;0.40;99.90;;;;;;5032449;28;20183;-66
2022/03/03 02:42:10;;;;;;;22.27;17.10;;;0.40;99.90;;;;;;5032553;28;20174;-67
2022/03/03 02:44:35;;;;;;;22.90;18.07;;;0.40;99.90;;;;;;5032062;28;20487;-67
2022/03/03 02:47:01;;;;;;;24.20;17.60;;;0.40;99.90;;;;;;5032008;28;20182;-67
2022/03/03 02:49:26;;;;;;;22.77;16.93;;;0.30;99.90;;;;;;5032175;28;20216;-67
2022/03/03 02:51:52;;;;;;;22.43;17.17;;;0.20;99.90;;;;;;5032443;28;20182;-67
2022/03/03 02:54:18;;;;;;;21.73;17.97;;;0.20;99.90;;;;;;5032001;28;20687;-67
2022/03/03 02:59:27;;;;;;;24.07;18.10;;;0.20;99.90;;;;;;5032230;28;20712;-67
2022/03/03 03:01:53;;;;;;;26.53;18.87;;;0.00;99.90;;;;;;5032301;28;20432;-66
2022/03/03 03:04:19;;;;;;;23.50;18.47;;;-0.10;99.90;;;;;;5030692;28;20204;-67
2022/03/03 03:06:44;;;;;;;23.30;18.53;;;-0.10;99.90;;;;;;5031572;28;20186;-66
2022/03/03 03:09:10;;;;;;;25.27;17.70;;;-0.10;99.90;;;;;;5032272;28;20619;-67
2022/03/03 03:11:35;;;;;;;29.53;18.70;;;-0.10;99.90;;;;;;5032129;28;20190;-67
2022/03/03 03:14:01;;;;;;;26.17;19.13;;;-0.10;99.90;;;;;;5032087;28;20198;-67
2022/03/03 03:16:26;;;;;;;25.70;18.87;;;-0.10;99.90;;;;;;5031537;28;20280;-66
2022/03/03 03:18:52;;;;;;;33.53;20.93;;;-0.10;99.90;;;;;;5032133;28;20670;-67
2022/03/03 03:21:17;;;;;;;30.10;20.60;;;-0.10;99.90;;;;;;5031727;28;20183;-67
2022/03/03 03:23:43;;;;;;;29.97;18.10;;;-0.10;99.90;;;;;;5031768;28;20190;-66
2022/03/03 03:26:09;;;;;;;26.00;18.43;;;-0.10;99.90;;;;;;5031292;28;20177;-67
2022/03/03 03:28:34;;;;;;;26.67;18.37;;;-0.10;99.90;;;;;;5031836;28;20578;-67
2022/03/03 03:31:00;;;;;;;31.70;20.10;;;0.00;99.90;;;;;;5030818;28;20640;-66
2022/03/03 03:33:25;;;;;;;25.17;18.80;;;0.00;99.90;;;;;;5032069;28;20677;-67
2022/03/03 03:35:51;;;;;;;24.70;19.00;;;0.00;99.90;;;;;;5031322;28;20198;-66
2022/03/03 03:38:16;;;;;;;28.83;19.00;;;0.00;99.90;;;;;;5030038;28;20184;-66
2022/03/03 03:40:42;;;;;;;28.67;19.17;;;0.00;99.90;;;;;;5031714;28;20178;-67
2022/03/03 03:43:08;;;;;;;22.50;17.67;;;-0.10;99.90;;;;;;5031523;28;20531;-67
2022/03/03 03:45:35;;;;;;;24.50;18.20;;;-0.10;99.90;;;;;;5031454;28;20249;-67
2022/03/03 03:48:01;;;;;;;24.73;17.97;;;-0.10;99.90;;;;;;5031447;28;20464;-66
2022/03/03 03:50:28;;;;;;;26.30;18.37;;;-0.20;99.90;;;;;;5031512;28;20963;-67
2022/03/03 03:52:54;;;;;;;28.47;18.00;;;-0.20;99.90;;;;;;5031623;28;20536;-66
2022/03/03 03:55:19;;;;;;;26.10;19.07;;;-0.20;99.90;;;;;;5031097;28;20582;-67
2022/03/03 03:57:45;;;;;;;27.80;18.63;;;-0.20;99.90;;;;;;5031214;28;20170;-67
2022/03/03 04:00:13;;;;;;;20.97;17.30;;;-0.30;99.90;;;;;;5031114;28;20190;-66
2022/03/03 04:02:40;;;;;;;22.33;17.40;;;-0.30;99.90;;;;;;5031450;28;20716;-67
2022/03/03 04:05:06;;;;;;;23.63;18.33;;;-0.20;99.90;;;;;;5031191;28;20445;-66
2022/03/03 04:07:32;;;;;;;23.30;17.77;;;-0.20;99.90;;;;;;5031475;28;20784;-67
2022/03/03 04:09:57;;;;;;;25.93;17.93;;;-0.20;99.90;;;;;;5031149;28;20840;-67
2022/03/03 04:12:23;;;;;;;31.03;17.13;;;-0.30;99.90;;;;;;5031152;28;20174;-67
2022/03/03 04:14:48;;;;;;;23.70;17.70;;;-0.30;99.90;;;;;;5031445;28;20297;-66
2022/03/03 04:17:14;;;;;;;19.97;15.60;;;-0.40;99.90;;;;;;5031016;28;20317;-66
2022/03/03 04:19:39;;;;;;;30.63;19.33;;;-0.50;99.90;;;;;;5030331;28;20794;-67
2022/03/03 04:22:05;;;;;;;24.37;18.70;;;-0.40;99.90;;;;;;5029593;28;21068;-67
2022/03/03 04:24:30;;;;;;;24.30;17.60;;;-0.40;99.90;;;;;;5030099;28;20204;-66
2022/03/03 04:26:56;;;;;;;27.00;20.20;;;-0.30;99.90;;;;;;5030716;28;20236;-67
2022/03/03 04:29:22;;;;;;;24.00;17.67;;;-0.20;99.90;;;;;;5031204;28;20636;-66
2022/03/03 04:31:50;;;;;;;31.07;21.10;;;-0.10;99.90;;;;;;5030980;28;20452;-67
2022/03/03 04:34:16;;;;;;;23.10;17.60;;;-0.10;99.90;;;;;;5030185;28;20449;-66
2022/03/03 04:36:41;;;;;;;22.60;17.80;;;0.00;99.90;;;;;;5029928;28;20837;-66
2022/03/03 04:39:07;;;;;;;26.50;18.77;;;0.00;99.90;;;;;;5031333;28;20566;-66
2022/03/03 04:41:32;;;;;;;23.27;17.70;;;0.00;99.90;;;;;;5031377;28;20232;-66
2022/03/03 04:43:58;;;;;;;26.00;19.17;;;0.00;99.90;;;;;;5031246;28;20565;-67
2022/03/03 04:46:23;;;;;;;25.30;17.60;;;0.00;99.90;;;;;;5031027;28;20562;-66
2022/03/03 04:48:49;;;;;;;25.93;18.10;;;0.00;99.90;;;;;;5030769;28;20202;-66
2022/03/03 04:51:14;;;;;;;24.70;19.20;;;-0.10;99.90;;;;;;5031121;28;20701;-65
2022/03/03 04:53:40;;;;;;;23.70;17.10;;;-0.10;99.90;;;;;;5030814;28;20175;-65
2022/03/03 04:56:06;;;;;;;21.60;17.90;;;-0.20;99.90;;;;;;5032289;28;20174;-65
2022/03/03 04:58:31;;;;;;;27.23;18.90;;;-0.10;99.90;;;;;;5034733;28;20235;-66
2022/03/03 05:00:57;;;;;;;33.97;18.97;;;-0.20;99.90;;;;;;5034729;28;20267;-66
2022/03/03 05:03:22;;;;;;;25.83;19.90;;;-0.20;99.90;;;;;;5034577;28;20312;-66
2022/03/03 05:05:48;;;;;;;23.60;18.60;;;-0.20;99.90;;;;;;5034129;28;20990;-66
2022/03/03 05:08:13;;;;;;;25.97;18.43;;;-0.20;99.90;;;;;;5034173;28;20573;-66
2022/03/03 05:10:39;;;;;;;25.83;17.70;;;-0.30;99.90;;;;;;5034605;28;20166;-66
2022/03/03 05:13:05;;;;;;;30.60;18.87;;;-0.30;99.90;;;;;;5034151;28;20297;-66
2022/03/03 05:15:30;;;;;;;24.43;18.73;;;-0.40;99.90;;;;;;5033986;28;20194;-66
2022/03/03 05:17:58;;;;;;;29.40;19.40;;;-0.30;99.90;;;;;;5033266;28;20201;-66
2022/03/03 05:20:24;;;;;;;32.43;19.17;;;-0.30;99.90;;;;;;5034388;28;20177;-66
2022/03/03 05:22:49;;;;;;;24.80;18.27;;;-0.30;99.90;;;;;;5034318;28;20776;-66
2022/03/03 05:25:15;;;;;;;24.90;17.37;;;-0.30;99.90;;;;;;5033629;28;20255;-66
2022/03/03 05:27:40;;;;;;;27.47;19.57;;;-0.30;99.90;;;;;;5034346;28;20178;-66
2022/03/03 05:30:07;;;;;;;28.50;20.43;;;-0.20;99.90;;;;;;5033728;28;20170;-67
2022/03/03 05:32:33;;;;;;;25.70;17.67;;;-0.20;99.90;;;;;;5033769;28;20706;-66
2022/03/03 05:34:59;;;;;;;24.30;18.73;;;-0.30;99.90;;;;;;5034009;28;20456;-67
2022/03/03 05:37:25;;;;;;;27.07;20.53;;;-0.30;99.90;;;;;;5033869;28;20436;-66
2022/03/03 05:39:52;;;;;;;26.33;19.33;;;-0.30;99.90;;;;;;5033983;28;20178;-67
2022/03/03 05:42:20;;;;;;;28.07;19.10;;;-0.30;99.90;;;;;;5033820;28;20433;-66
2022/03/03 05:44:46;;;;;;;25.53;19.23;;;-0.40;99.90;;;;;;5033213;28;20455;-67
2022/03/03 05:47:12;;;;;;;28.50;18.30;;;-0.40;99.90;;;;;;5033330;28;20482;-67
2022/03/03 05:49:39;;;;;;;31.00;20.23;;;-0.40;99.90;;;;;;5033678;28;20453;-67
2022/03/03 05:52:05;;;;;;;24.93;18.73;;;-0.40;99.90;;;;;;5033556;28;20563;-66
2022/03/03 05:54:31;;;;;;;26.70;19.33;;;-0.40;99.90;;;;;;5033249;28;20532;-66
2022/03/03 05:57:00;;;;;;;28.10;19.53;;;-0.40;99.90;;;;;;5033396;28;20548;-67
2022/03/03 05:59:30;;;;;;;27.13;19.33;;;-0.50;99.90;;;;;;5033919;28;20267;-67
2022/03/03 06:01:57;;;;;;;29.93;19.90;;;-0.50;99.90;;;;;;5033032;28;20433;-66
2022/03/03 06:04:27;;;;;;;29.33;20.43;;;-0.60;99.90;;;;;;5033080;28;20547;-66
2022/03/03 06:06:58;;;;;;;28.87;20.90;;;-0.60;99.90;;;;;;5032634;28;20432;-66
2022/03/03 06:09:29;;;;;;;24.80;18.37;;;-0.60;99.90;;;;;;5033236;28;20548;-66
2022/03/03 06:12:22;;;;;;;28.93;19.67;;;-0.60;99.90;;;;;;5033414;28;20447;-66
2022/03/03 06:15:01;;;;;;;29.03;21.63;;;-0.60;99.90;;;;;;5032911;28;20449;-66
2022/03/03 06:17:26;;;;;;;33.13;20.33;;;-0.60;99.90;;;;;;5032612;28;20430;-66
2022/03/03 06:19:52;;;;;;;32.67;21.20;;;-0.60;99.90;;;;;;5030592;28;20798;-66
2022/03/03 06:22:19;;;;;;;26.23;19.37;;;-0.50;99.90;;;;;;5032637;28;20182;-66
2022/03/03 06:24:46;;;;;;;35.23;22.30;;;-0.50;99.90;;;;;;5032577;28;20440;-66
2022/03/03 06:27:12;;;;;;;28.93;21.17;;;-0.40;99.90;;;;;;5032703;28;20429;-66
2022/03/03 06:29:38;;;;;;;31.10;20.53;;;-0.40;99.90;;;;;;5032892;28;20464;-66
2022/03/03 06:32:05;;;;;;;29.47;21.07;;;-0.30;99.90;;;;;;5031987;28;20532;-66
2022/03/03 06:34:30;;;;;;;32.93;21.07;;;-0.30;99.90;;;;;;5031946;28;20456;-66
2022/03/03 06:36:56;;;;;;;27.80;20.73;;;-0.20;99.90;;;;;;5032249;28;20804;-66
2022/03/03 06:39:22;;;;;;;35.23;20.80;;;0.00;99.90;;;;;;5032389;28;20539;-66
2022/03/03 06:41:48;;;;;;;33.07;21.43;;;0.20;99.90;;;;;;5031910;28;20739;-66
2022/03/03 06:44:14;;;;;;;24.80;19.50;;;0.40;99.90;;;;;;5032310;28;20210;-66
2022/03/03 06:46:40;;;;;;;24.67;19.93;;;0.60;99.90;;;;;;5032348;28;21035;-66
2022/03/03 06:49:06;;;;;;;33.23;21.80;;;0.80;99.90;;;;;;5032152;28;21040;-66
2022/03/03 06:51:40;;;;;;;35.40;22.13;;;0.80;99.90;;;;;;5032196;28;20516;-66
2022/03/03 06:54:10;;;;;;;30.50;20.93;;;1.00;99.90;;;;;;5032330;28;20250;-66
2022/03/03 06:56:39;;;;;;;35.20;21.10;;;1.20;99.90;;;;;;5031328;28;20437;-66
2022/03/03 06:59:05;;;;;;;32.60;20.30;;;1.40;99.90;;;;;;5031740;28;20443;-66
2022/03/03 07:01:31;;;;;;;29.60;21.67;;;1.60;99.90;;;;;;5032083;28;20439;-66
2022/03/03 07:03:57;;;;;;;37.43;23.53;;;1.70;99.90;;;;;;5031648;28;20545;-66
2022/03/03 07:06:23;;;;;;;32.23;21.43;;;1.80;99.90;;;;;;5031393;28;20552;-66
2022/03/03 07:08:53;;;;;;;27.57;21.03;;;2.00;99.90;;;;;;5031786;28;20457;-65
2022/03/03 07:11:19;;;;;;;38.00;22.57;;;2.10;99.90;;;;;;5031018;28;20551;-66
2022/03/03 07:13:46;;;;;;;33.63;22.10;;;2.30;99.90;;;;;;5031626;28;20428;-65
2022/03/03 07:16:38;;;;;;;37.37;22.60;;;2.50;99.90;;;;;;5024234;28;20512;-65
2022/03/03 07:19:05;;;;;;;30.53;20.77;;;2.70;99.90;;;;;;5030057;28;20444;-66
2022/03/03 07:22:12;;;;;;;38.80;21.77;;;2.90;99.90;;;;;;5031619;28;20432;-70
2022/03/03 07:24:45;;;;;;;29.80;20.53;;;3.00;99.90;;;;;;5009365;28;20468;-66
2022/03/03 07:27:19;;;;;;;31.13;22.80;;;3.30;99.90;;;;;;5009461;28;20469;-66
2022/03/03 07:29:54;;;;;;;27.63;19.17;;;3.50;99.90;;;;;;5021052;28;20500;-65
2022/03/03 07:32:24;;;;;;;25.80;20.63;;;3.80;99.90;;;;;;5031739;28;20424;-65
2022/03/03 07:34:57;;;;;;;37.37;22.50;;;4.10;99.90;;;;;;5028458;28;20527;-66
2022/03/03 07:37:30;;;;;;;31.33;20.00;;;4.40;99.90;;;;;;5026828;28;20790;-66
2022/03/03 07:40:04;;;;;;;23.73;19.50;;;4.60;99.90;;;;;;5031265;28;20450;-66
2022/03/03 07:42:29;;;;;;;28.40;20.87;;;4.80;99.90;;;;;;5030914;28;20855;-66
2022/03/03 07:44:55;;;;;;;24.53;20.50;;;5.00;99.90;;;;;;5029783;28;20437;-65
2022/03/03 07:47:21;;;;;;;25.30;21.57;;;5.20;99.90;;;;;;5030630;28;20190;-66
2022/03/03 07:49:47;;;;;;;24.30;21.33;;;5.40;99.90;;;;;;5031127;28;20216;-66
2022/03/03 07:52:12;;;;;;;28.40;20.93;;;5.60;99.90;;;;;;5033478;28;20812;-66
2022/03/03 07:54:38;;;;;;;31.23;23.50;;;5.90;99.90;;;;;;5043466;28;20205;-66
2022/03/03 07:57:07;;;;;;;28.43;21.80;;;6.10;99.90;;;;;;5042049;28;20166;-67
2022/03/03 07:59:35;;;;;;;28.80;22.70;;;6.20;99.90;;;;;;5031059;28;20548;-66
2022/03/03 08:02:04;;;;;;;34.80;26.30;;;6.40;99.90;;;;;;5031227;28;20962;-66
2022/03/03 08:04:31;;;;;;;35.10;22.27;;;6.60;99.90;;;;;;5034228;28;20997;-66
2022/03/03 08:07:05;;;;;;;26.90;21.70;;;6.70;99.90;;;;;;5036403;28;20510;-66
2022/03/03 08:09:32;;;;;;;30.80;21.50;;;7.00;99.90;;;;;;5038400;28;20493;-66
2022/03/03 08:12:01;;;;;;;25.07;21.30;;;7.20;99.90;;;;;;5030959;28;20933;-66
2022/03/03 08:14:29;;;;;;;30.10;21.13;;;7.40;99.90;;;;;;5030970;28;20964;-66
2022/03/03 08:16:55;;;;;;;27.00;20.60;;;7.60;99.90;;;;;;5030942;28;20909;-65
2022/03/03 08:19:21;;;;;;;27.83;22.97;;;7.80;99.90;;;;;;5029470;28;20447;-64
2022/03/03 08:21:48;;;;;;;27.47;21.37;;;8.00;99.90;;;;;;5030933;28;20214;-64
2022/03/03 08:24:14;;;;;;;28.90;20.33;;;8.20;99.00;;;;;;5031205;28;20502;-64
2022/03/03 08:26:42;;;;;;;28.23;21.60;;;8.40;98.00;;;;;;5030504;28;20425;-64
2022/03/03 08:29:09;;;;;;;28.67;22.83;;;8.60;97.70;;;;;;5031056;28;20465;-65
2022/03/03 08:31:40;;;;;;;26.80;21.70;;;8.80;96.80;;;;;;5026969;28;20460;-65
2022/03/03 08:34:21;;;;;;;25.73;21.13;;;9.00;96.10;;;;;;5009592;28;20448;-65
2022/03/03 08:37:00;;;;;;;25.73;22.00;;;9.60;94.90;;;;;;5020407;28;20433;-65
2022/03/03 08:39:28;;;;;;;32.30;22.40;;;9.90;93.40;;;;;;5033754;28;20428;-65
2022/03/03 08:41:59;;;;;;;26.77;22.97;;;10.20;93.20;;;;;;5034602;28;20433;-64
2022/03/03 08:44:31;;;;;;;29.10;24.53;;;10.40;92.50;;;;;;5029052;28;20832;-65
2022/03/03 08:46:58;;;;;;;27.37;23.50;;;10.60;91.80;;;;;;5034477;28;20486;-65
2022/03/03 08:49:30;;;;;;;27.90;23.00;;;11.40;90.30;;;;;;5034157;28;20506;-65
2022/03/03 08:51:55;;;;;;;26.80;23.87;;;12.20;87.40;;;;;;5027295;28;20538;-65
2022/03/03 08:54:21;;;;;;;26.73;23.13;;;12.40;82.50;;;;;;5027727;28;21280;-65
2022/03/03 08:56:47;;;;;;;26.60;23.60;;;12.70;80.90;;;;;;5030128;28;20953;-65
2022/03/03 08:59:13;;;;;;;27.23;22.80;;;13.40;80.60;;;;;;5030970;28;20185;-65
2022/03/03 09:01:38;;;;;;;26.93;23.93;;;14.50;77.10;;;;;;5030846;28;20527;-65
2022/03/03 09:04:05;;;;;;;25.33;22.67;;;15.30;71.10;;;;;;5027473;28;20277;-65
2022/03/03 09:06:31;;;;;;;27.33;24.20;;;16.10;63.50;;;;;;5030515;28;20253;-66
2022/03/03 09:08:57;;;;;;;27.67;24.90;;;16.50;61.10;;;;;;5031153;28;20471;-65
2022/03/03 09:11:23;;;;;;;27.10;24.70;;;16.70;59.20;;;;;;5030673;28;21168;-65
2022/03/03 09:13:49;;;;;;;27.87;25.00;;;17.20;57.00;;;;;;5027320;28;20452;-65
2022/03/03 09:16:17;;;;;;;27.40;24.67;;;17.20;56.50;;;;;;5030514;28;20618;-64
2022/03/03 09:18:47;;;;;;;29.47;26.53;;;17.00;56.60;;;;;;5030929;28;20541;-64
2022/03/03 09:21:12;;;;;;;31.03;24.90;;;17.10;55.80;;;;;;5030939;28;20429;-64
2022/03/03 09:23:38;;;;;;;30.00;26.00;;;17.00;56.50;;;;;;5027304;28;20437;-64
2022/03/03 09:26:04;;;;;;;28.43;25.97;;;17.40;55.10;;;;;;5030147;28;20202;-64
2022/03/03 09:28:30;;;;;;;28.67;25.77;;;17.50;54.10;;;;;;5030697;28;20574;-64
2022/03/03 09:30:56;;;;;;;33.27;26.63;;;17.40;53.60;;;;;;5030712;28;20185;-64
2022/03/03 09:33:23;;;;;;;33.40;28.77;;;17.50;54.10;;;;;;5026997;28;20437;-64
2022/03/03 09:35:49;;;;;;;30.20;27.20;;;18.50;51.50;;;;;;5030031;28;20469;-64
2022/03/03 09:38:14;;;;;;;28.63;25.63;;;18.70;50.50;;;;;;5030669;28;20517;-64
2022/03/03 09:40:41;;;;;;;29.40;26.50;;;19.40;49.70;;;;;;5030304;28;20456;-65
2022/03/03 09:43:07;;;;;;;28.60;25.70;;;19.30;48.30;;;;;;5026016;28;20178;-64
2022/03/03 09:45:35;;;;;;;30.63;27.30;;;18.60;48.60;;;;;;5028289;28;20502;-64
2022/03/03 09:48:03;;;;;;;30.13;27.20;;;19.50;48.90;;;;;;5029483;28;20598;-65
2022/03/03 09:50:30;;;;;;;28.30;25.50;;;19.20;47.60;;;;;;5029535;28;20472;-65
2022/03/03 09:52:56;;;;;;;30.03;27.17;;;19.30;47.70;;;;;;5027095;28;21028;-64
2022/03/03 09:55:22;;;;;;;29.90;26.80;;;19.30;47.00;;;;;;5028774;28;20460;-64
2022/03/03 09:57:49;;;;;;;31.23;25.60;;;19.40;46.40;;;;;;5029602;28;20715;-65
2022/03/03 10:00:15;;;;;;;30.00;26.37;;;19.20;46.20;;;;;;5029805;28;20472;-65
2022/03/03 10:03:03;;;;;;;30.37;27.60;;;19.90;45.50;;;;;;5027846;28;20440;-65
2022/03/03 10:05:39;;;;;;;28.93;26.43;;;20.00;44.10;;;;;;5029594;28;21163;-64
2022/03/03 10:08:08;;;;;;;29.23;26.40;;;21.10;43.90;;;;;;5017385;28;20432;-65
2022/03/03 10:10:35;;;;;;;30.10;26.87;;;22.50;40.80;;;;;;5031104;28;20536;-65
2022/03/03 10:13:01;;;;;;;29.63;26.63;;;22.80;39.90;;;;;;5028089;28;20469;-65
2022/03/03 10:15:29;;;;;;;30.00;27.20;;;23.00;39.00;;;;;;5032199;28;20479;-65
2022/03/03 10:17:56;;;;;;;29.27;26.20;;;22.80;39.10;;;;;;5031611;28;20198;-65
2022/03/03 10:20:22;;;;;;;28.13;25.53;;;22.60;38.40;;;;;;5032152;28;21038;-65
2022/03/03 10:22:57;;;;;;;29.37;26.47;;;22.60;38.40;;;;;;5029573;28;20536;-65
2022/03/03 10:25:34;;;;;;;27.83;25.23;;;22.60;38.00;;;;;;5019691;28;20764;-65
2022/03/03 10:28:11;;;;;;;29.60;27.00;;;23.30;37.20;;;;;;5024502;28;20448;-65
2022/03/03 10:30:52;;;;;;;27.97;25.30;;;24.70;35.90;;;;;;5032266;28;20515;-65
2022/03/03 10:33:20;;;;;;;29.40;26.80;;;25.90;34.60;;;;;;5029389;28;20958;-65
2022/03/03 10:36:03;;;;;;;31.73;28.77;;;26.70;33.80;;;;;;5031990;28;20491;-65
2022/03/03 10:38:29;;;;;;;31.53;28.53;;;26.80;32.00;;;;;;5032138;28;20437;-65
2022/03/03 10:40:55;;;;;;;30.27;27.37;;;26.90;31.90;;;;;;5032033;28;20436;-65
2022/03/03 10:43:20;;;;;;;28.50;25.90;;;26.10;31.50;;;;;;5029294;28;20768;-65
2022/03/03 10:45:58;;;;;;;30.40;27.90;;;25.40;32.00;;;;;;5031931;28;20204;-65
2022/03/03 10:48:25;;;;;;;28.30;25.80;;;25.50;31.80;;;;;;5032210;28;20232;-65
2022/03/03 10:50:54;;;;;;;30.17;27.63;;;25.50;31.60;;;;;;5032590;28;20431;-65
2022/03/03 10:53:21;;;;;;;29.93;27.03;;;26.40;31.30;;;;;;5028721;28;20428;-65
2022/03/03 10:56:06;;;;;;;28.23;25.73;;;26.30;30.20;;;;;;5032080;28;20451;-65
2022/03/03 10:58:51;;;;;;;27.60;25.10;;;25.90;30.80;;;;;;5032326;28;20433;-64
2022/03/03 11:01:20;;;;;;;28.77;25.90;;;25.80;30.30;;;;;;5030095;28;20429;-64
2022/03/03 11:03:49;;;;;;;27.80;25.17;;;26.00;29.90;;;;;;5027763;28;20428;-64
2022/03/03 11:06:20;;;;;;;26.67;24.30;;;26.60;30.00;;;;;;5029248;28;20992;-65
2022/03/03 11:08:51;;;;;;;29.23;26.63;;;27.30;29.20;;;;;;5030749;28;20477;-64
2022/03/03 11:11:17;;;;;;;30.13;27.37;;;27.90;28.60;;;;;;5030973;28;20927;-64
2022/03/03 11:13:44;;;;;;;26.23;23.93;;;26.90;28.70;;;;;;5026889;28;20503;-65
2022/03/03 11:16:10;;;;;;;27.27;24.73;;;26.20;28.40;;;;;;5031093;28;20512;-65
2022/03/03 11:18:36;;;;;;;26.53;24.13;;;26.50;28.90;;;;;;5032429;28;20539;-64
2022/03/03 11:21:03;;;;;;;27.87;24.90;;;26.60;28.60;;;;;;5031835;28;20185;-63
2022/03/03 11:23:43;;;;;;;26.13;23.73;;;26.60;28.50;;;;;;5028766;28;20663;-63
2022/03/03 11:26:18;;;;;;;25.90;23.57;;;27.10;28.20;;;;;;5031590;28;20425;-63
2022/03/03 11:28:56;;;;;;;26.53;24.33;;;26.90;28.00;;;;;;5031288;28;20973;-64
2022/03/03 11:31:30;;;;;;;27.27;24.73;;;26.30;28.20;;;;;;5030089;28;22156;-64
2022/03/03 11:34:21;;;;;;;29.17;26.57;;;26.40;28.10;;;;;;5027541;28;20497;-63
2022/03/03 11:36:48;;;;;;;26.67;24.37;;;27.80;27.80;;;;;;5031760;28;20424;-64
2022/03/03 11:39:59;;;;;;;26.83;24.43;;;27.50;27.40;;;;;;5032284;28;20416;-63
2022/03/03 11:42:32;;;;;;;26.83;24.40;;;26.40;27.60;;;;;;5009462;28;20428;-63
2022/03/03 11:45:20;;;;;;;26.40;24.07;;;27.50;27.40;;;;;;5027637;28;20452;-63
2022/03/03 11:47:48;;;;;;;25.77;23.43;;;27.40;27.40;;;;;;5031660;28;20468;-64
2022/03/03 11:50:16;;;;;;;24.57;22.40;;;25.90;27.20;;;;;;5031677;28;20462;-64
2022/03/03 11:53:12;;;;;;;25.83;23.30;;;26.20;26.50;;;;;;5029458;28;20425;-64
2022/03/03 11:55:46;;;;;;;27.60;25.10;;;28.00;26.40;;;;;;5031225;28;20452;-64
2022/03/03 11:58:20;;;;;;;25.53;23.27;;;28.70;26.10;;;;;;5031682;28;20447;-64
2022/03/03 12:00:58;;;;;;;24.90;22.53;;;29.60;25.90;;;;;;5024613;28;20917;-64
2022/03/03 12:03:26;;;;;;;25.33;23.03;;;30.40;25.20;;;;;;5028430;28;20436;-64
2022/03/03 12:06:09;;;;;;;23.00;20.90;;;30.40;25.00;;;;;;5023471;28;21029;-64
2022/03/03 12:08:37;;;;;;;24.70;22.50;;;30.60;24.50;;;;;;5035644;28;20456;-64
2022/03/03 12:11:10;;;;;;;27.90;25.40;;;30.90;24.50;;;;;;5035647;28;20492;-64
2022/03/03 12:13:47;;;;;;;24.30;22.30;;;31.50;24.50;;;;;;5032298;28;20852;-64
2022/03/03 12:16:18;;;;;;;25.60;23.40;;;31.60;24.30;;;;;;5015693;28;20427;-64
2022/03/03 12:18:45;;;;;;;27.07;24.70;;;30.80;24.60;;;;;;5015943;28;20421;-64
2022/03/03 12:21:26;;;;;;;26.27;24.17;;;30.30;25.10;;;;;;5015729;28;20858;-66
2022/03/03 12:24:14;;;;;;;27.10;24.90;;;30.90;24.90;;;;;;5024050;28;20445;-64
2022/03/03 12:26:51;;;;;;;25.77;23.50;;;31.20;24.90;;;;;;5035078;28;20826;-64
2022/03/03 12:29:40;;;;;;;27.83;25.20;;;31.70;24.30;;;;;;5035348;28;20599;-64
2022/03/03 12:32:24;;;;;;;25.90;23.67;;;32.10;24.00;;;;;;5035478;28;20416;-64
2022/03/03 12:34:54;;;;;;;26.63;24.37;;;31.70;24.40;;;;;;5032092;28;20460;-64
2022/03/03 12:37:20;;;;;;;28.20;26.00;;;31.70;23.90;;;;;;5035175;28;20416;-64
2022/03/03 12:39:54;;;;;;;28.07;25.70;;;30.80;24.10;;;;;;5035264;28;20417;-64